메인 페이지
METAR-TAF:

METAR-TAF

공항 :

상파울루, 상파울루, 브라질

위도: 23-31S, 경도: 046-38W, 고도: 722m

현재 날씨관측

예보는 1 시간 12분 전, 19:00시(UTC)에 발표되었습니다.
4kt
온도 24°C
습도 34%
기압 1018 hPa
시정 10km 이상
1500m 미만 상공 구름 및 적란운 없음

METAR: SBMT 211900Z 09004KT CAVOK 24/07 Q1018

시각: 17:12 (20:12 UTC)


TAF: 누락

4,000개 이상의 공항 관측 자료 및 예보 (METAR 및 TAF 보고).

지도상에서 검색 가능한 기상관측소가 노란 점과 빨간 점으로 표시되어 있습니다.

기상관측소 명을 보려면 표시 위로 마우스를 이동하세요.

날씨 관측과 예보를 보려면 클릭하세요.

지도 변경 : 확대하려면 엑스 표시가 있는 녹색 버튼, 축소하려면 빼기 표시가 있는 녹색 버튼, 다음 페이지의 지도를 보려면 녹색 화살표를 클릭하세요.


METAR-TAF: